メインページ
METAR-TAF:

METAR-TAF

空港 :

ヌアクショット, モーリタニア

ヌアクショット空港

緯度: 18-18-36N, 経度: 015-58-11W, 海抜: 3m

現時点の気象観測

当レポートは21分前の11:30(UTC)に作成
の風 14kt
気温 36°C
湿度 21%
気圧 1011 hPa
視程: 8000m

METAR: GQNO 241130Z 01014KT 8000 NSC 36/10 Q1011 NOSIG

時間: 11:51 (11:51 UTC)

予報

当レポートは6時間51分前の05:00(UTC)に作成
予報は24日の 06時(UTC)から 25日の 12時(UTC)まで有効
の風 8kt、最大18ktの突風を伴う
視程: 6000m
確率 40% :
24日の 15時(UTC)から 24日の 21時(UTC)まで一時的に
視程: 3000m
風砂

TAF: GQNO 240500Z 2406/2512 36008G18KT 6000 NSC PROB40 TEMPO 2415/2421 3000 BLSA

4,000以上の空港の気象観測と天気予報(METAR報とTAF報)

利用可能な観測所は地図上に黄色い丸と赤い丸で示す。

丸の上にカーソルを重ねると観測所名を参照できる。

次にクリックすると気象観測と天気予報を参照できる。

マップの切り替え:黒色「×」印の緑ボタンをクリックして拡大、「-」印の緑ボタンをクリックして縮小、緑色の三角印をクリックして隣りの地図に切り替え


METAR-TAF: